Time;durP1;ratioP1;P1;durP2;ratioP2;P2;SDS_P1;SDS_P2;PMS_P1;PMS_P2;Temp;Humidity;BMP_temperature;BMP_pressure;BME280_temperature;BME280_humidity;BME280_pressure;Samples;Min_cycle;Max_cycle;Signal;HPM_P1;HPM_P2
2022/10/30 00:00:43;;;;;;;61.78;31.60;;;;;;;;;;5030714;28;20021;-78
2022/10/30 00:03:11;;;;;;;60.92;30.67;;;;;;;;;;5031160;28;20028;-77
2022/10/30 00:05:41;;;;;;;71.25;31.20;;;;;;;;;;5032110;28;20063;-77
2022/10/30 00:08:08;;;;;;;56.03;29.65;;;;;;;;;;5031712;28;20043;-76
2022/10/30 00:10:34;;;;;;;57.45;28.13;;;;;;;;;;5014047;28;20029;-77
2022/10/30 00:12:59;;;;;;;54.15;29.05;;;;;;;;;;5032030;28;20087;-77
2022/10/30 00:15:25;;;;;;;52.58;27.38;;;;;;;;;;5030750;28;20187;-77
2022/10/30 00:17:50;;;;;;;61.40;29.00;;;;;;;;;;5031135;28;20512;-75
2022/10/30 00:20:16;;;;;;;55.92;28.33;;;;;;;;;;5030490;28;20296;-78
2022/10/30 00:22:41;;;;;;;51.90;27.02;;;;;;;;;;5030372;28;20080;-77
2022/10/30 00:25:07;;;;;;;55.53;27.02;;;;;;;;;;5032137;28;20053;-77
2022/10/30 00:27:32;;;;;;;51.53;26.48;;;;;;;;;;5030751;28;20393;-77
2022/10/30 00:29:58;;;;;;;55.13;27.98;;;;;;;;;;5030379;28;20025;-75
2022/10/30 00:32:24;;;;;;;51.03;26.27;;;;;;;;;;5031613;28;20021;-77
2022/10/30 00:34:50;;;;;;;49.30;26.55;;;;;;;;;;5032173;28;20425;-77
2022/10/30 00:37:15;;;;;;;52.17;26.27;;;;;;;;;;5013659;28;20095;-77
2022/10/30 00:39:41;;;;;;;52.60;25.67;;;;;;;;;;5030525;28;20037;-77
2022/10/30 00:42:11;;;;;;;46.45;24.65;;;;;;;;;;5031660;28;20051;-75
2022/10/30 00:44:44;;;;;;;52.92;24.75;;;;;;;;;;5031607;28;20115;-76
2022/10/30 00:47:22;;;;;;;42.80;24.35;;;;;;;;;;5033528;28;20105;-75
2022/10/30 00:50:05;;;;;;;40.17;23.42;;;;;;;;;;5036124;28;20501;-77
2022/10/30 00:52:34;;;;;;;44.35;23.58;;;;;;;;;;5035211;28;20025;-76
2022/10/30 00:55:06;;;;;;;43.05;23.60;;;;;;;;;;5035236;28;20033;-77
2022/10/30 00:57:33;;;;;;;39.75;24.27;;;;;;;;;;5033895;28;20482;-76
2022/10/30 00:59:58;;;;;;;45.22;23.92;;;;;;;;;;5033758;28;20040;-74
2022/10/30 01:02:24;;;;;;;48.88;25.77;;;;;;;;;;5035268;28;20021;-77
2022/10/30 01:04:53;;;;;;;43.78;23.83;;;;;;;;;;5035409;28;20026;-77
2022/10/30 01:07:19;;;;;;;42.30;22.95;;;;;;;;;;5032908;28;20024;-77
2022/10/30 01:09:46;;;;;;;50.08;25.83;;;;;;;;;;5017183;28;20025;-76
2022/10/30 01:12:12;;;;;;;48.28;24.63;;;;;;;;;;5033333;28;20029;-77
2022/10/30 01:14:42;;;;;;;47.63;26.02;;;;;;;;;;5033455;28;20531;-76
2022/10/30 01:17:35;;;;;;;53.83;25.77;;;;;;;;;;5034118;28;20035;-77
2022/10/30 01:20:41;;;;;;;45.85;24.33;;;;;;;;;;5033600;28;20381;-77
2022/10/30 01:23:07;;;;;;;42.95;22.48;;;;;;;;;;5032880;28;20504;-76
2022/10/30 01:26:17;;;;;;;45.92;23.38;;;;;;;;;;5026044;28;20093;-76
2022/10/30 01:29:13;;;;;;;36.90;23.48;;;;;;;;;;5010023;28;20038;-76
2022/10/30 01:32:06;;;;;;;40.53;22.52;;;;;;;;;;5013548;28;20025;-76
2022/10/30 01:34:49;;;;;;;44.63;23.70;;;;;;;;;;5013462;28;20030;-77
2022/10/30 01:37:21;;;;;;;49.05;25.80;;;;;;;;;;5014707;28;20482;-77
2022/10/30 01:39:47;;;;;;;38.75;22.63;;;;;;;;;;5013148;28;20032;-77
2022/10/30 01:42:45;;;;;;;42.38;23.15;;;;;;;;;;5014688;28;20029;-78
2022/10/30 01:45:25;;;;;;;44.30;23.25;;;;;;;;;;5014787;28;20474;-75
2022/10/30 01:48:16;;;;;;;41.70;23.60;;;;;;;;;;5013640;28;20034;-78
2022/10/30 01:50:51;;;;;;;34.53;21.80;;;;;;;;;;5013215;28;20025;-76
2022/10/30 01:53:29;;;;;;;49.33;24.20;;;;;;;;;;5013628;28;20107;-77
2022/10/30 01:56:35;;;;;;;43.92;22.73;;;;;;;;;;5012938;28;20026;-76
2022/10/30 01:59:14;;;;;;;49.00;25.65;;;;;;;;;;4998222;28;20132;-76
2022/10/30 02:01:39;;;;;;;43.83;23.38;;;;;;;;;;5013039;28;20022;-77
2022/10/30 02:04:07;;;;;;;39.42;22.23;;;;;;;;;;5012920;28;20432;-77
2022/10/30 02:06:35;;;;;;;40.17;23.33;;;;;;;;;;5014017;28;20025;-77
2022/10/30 02:09:00;;;;;;;43.47;23.45;;;;;;;;;;5012500;28;20057;-76
2022/10/30 02:11:28;;;;;;;38.72;22.95;;;;;;;;;;5012657;28;20046;-77
2022/10/30 02:13:55;;;;;;;42.13;23.90;;;;;;;;;;5014203;28;20034;-76
2022/10/30 02:16:22;;;;;;;37.38;22.40;;;;;;;;;;5014445;28;20061;-77
2022/10/30 02:18:47;;;;;;;36.80;23.48;;;;;;;;;;5012761;28;20647;-77
2022/10/30 02:21:13;;;;;;;35.40;21.80;;;;;;;;;;5013433;28;20109;-77
2022/10/30 02:23:39;;;;;;;31.73;21.05;;;;;;;;;;5032890;28;20381;-77
2022/10/30 02:26:04;;;;;;;36.42;22.70;;;;;;;;;;5045222;28;20127;-77
2022/10/30 02:28:30;;;;;;;40.50;22.88;;;;;;;;;;5035707;28;20032;-75
2022/10/30 02:30:57;;;;;;;34.38;21.45;;;;;;;;;;5036292;28;20358;-78
2022/10/30 02:33:25;;;;;;;42.35;22.10;;;;;;;;;;5053147;28;20376;-76
2022/10/30 02:35:52;;;;;;;39.88;23.83;;;;;;;;;;5034900;28;20093;-75
2022/10/30 02:38:17;;;;;;;39.45;22.95;;;;;;;;;;5034871;28;20698;-77
2022/10/30 02:40:43;;;;;;;39.45;23.52;;;;;;;;;;5053156;28;20100;-77
2022/10/30 02:43:08;;;;;;;39.10;23.75;;;;;;;;;;5052831;28;20017;-77
2022/10/30 02:45:34;;;;;;;35.65;22.42;;;;;;;;;;5035303;28;20051;-77
2022/10/30 02:48:01;;;;;;;42.70;26.40;;;;;;;;;;5034815;28;20017;-78
2022/10/30 02:50:27;;;;;;;37.83;23.50;;;;;;;;;;5052700;28;20040;-78
2022/10/30 02:52:52;;;;;;;41.28;24.73;;;;;;;;;;5052178;28;20086;-77
2022/10/30 02:55:18;;;;;;;39.28;23.52;;;;;;;;;;5052557;28;20120;-75
2022/10/30 02:57:43;;;;;;;38.45;23.58;;;;;;;;;;5034722;28;20043;-75
2022/10/30 03:00:10;;;;;;;42.40;22.88;;;;;;;;;;5034897;28;20108;-76
2022/10/30 03:02:35;;;;;;;40.05;23.38;;;;;;;;;;5052340;28;20052;-75
2022/10/30 03:05:02;;;;;;;39.13;23.90;;;;;;;;;;5052153;28;20033;-78
2022/10/30 03:07:29;;;;;;;47.92;25.15;;;;;;;;;;5034305;28;20025;-75
2022/10/30 03:09:55;;;;;;;41.65;25.02;;;;;;;;;;5034547;28;20489;-77
2022/10/30 03:12:21;;;;;;;41.10;24.30;;;;;;;;;;5052310;28;20257;-79
2022/10/30 03:14:47;;;;;;;45.60;24.13;;;;;;;;;;5052306;28;20063;-79
2022/10/30 03:17:12;;;;;;;41.70;23.38;;;;;;;;;;5034772;28;20114;-77
2022/10/30 03:19:39;;;;;;;55.33;26.83;;;;;;;;;;5052742;28;20033;-79
2022/10/30 03:22:05;;;;;;;43.17;25.92;;;;;;;;;;5034197;28;20055;-76
2022/10/30 03:24:31;;;;;;;47.58;26.70;;;;;;;;;;5052863;28;20450;-77
2022/10/30 03:26:56;;;;;;;47.88;24.88;;;;;;;;;;5015853;28;20029;-78
2022/10/30 03:29:22;;;;;;;49.67;25.55;;;;;;;;;;5032194;28;20033;-77
2022/10/30 03:31:47;;;;;;;44.03;25.27;;;;;;;;;;5013938;28;20457;-77
2022/10/30 03:34:13;;;;;;;50.40;25.23;;;;;;;;;;5032708;28;20469;-79
2022/10/30 03:36:38;;;;;;;50.40;26.17;;;;;;;;;;5032361;28;20417;-76
2022/10/30 03:39:04;;;;;;;38.03;24.17;;;;;;;;;;5014314;28;20061;-76
2022/10/30 03:41:29;;;;;;;51.13;26.55;;;;;;;;;;5014117;28;20030;-76
2022/10/30 03:43:56;;;;;;;51.75;26.48;;;;;;;;;;5013757;28;20142;-76
2022/10/30 03:46:22;;;;;;;60.53;27.20;;;;;;;;;;5032054;28;20048;-78
2022/10/30 03:48:49;;;;;;;64.30;30.13;;;;;;;;;;5032165;28;20033;-76
2022/10/30 03:51:15;;;;;;;67.80;31.42;;;;;;;;;;5014470;28;20025;-76
2022/10/30 03:53:42;;;;;;;75.93;32.45;;;;;;;;;;4997956;28;20514;-77
2022/10/30 03:56:09;;;;;;;85.40;33.45;;;;;;;;;;5014510;28;20030;-77
2022/10/30 03:58:34;;;;;;;72.25;32.67;;;;;;;;;;5013793;28;20032;-77
2022/10/30 04:01:06;;;;;;;72.88;33.30;;;;;;;;;;5014545;28;20029;-77
2022/10/30 04:03:31;;;;;;;47.47;24.48;;;;;;;;;;5014198;28;20029;-78
2022/10/30 04:05:58;;;;;;;50.90;26.55;;;;;;;;;;5013896;28;20039;-79
2022/10/30 04:08:24;;;;;;;44.88;23.27;;;;;;;;;;5014177;28;20469;-78
2022/10/30 04:10:49;;;;;;;56.13;24.88;;;;;;;;;;5031881;28;20040;-77
2022/10/30 04:13:16;;;;;;;41.85;22.98;;;;;;;;;;5032044;28;20478;-77
2022/10/30 04:15:42;;;;;;;41.13;21.80;;;;;;;;;;5031527;28;20088;-78
2022/10/30 04:18:12;;;;;;;38.53;20.33;;;;;;;;;;5014791;28;20443;-79
2022/10/30 04:20:38;;;;;;;41.40;21.52;;;;;;;;;;5031725;28;20041;-78
2022/10/30 04:23:05;;;;;;;45.42;22.13;;;;;;;;;;5018280;28;20561;-77
2022/10/30 04:25:33;;;;;;;39.13;20.48;;;;;;;;;;5025368;28;20040;-79
2022/10/30 04:27:58;;;;;;;31.75;20.33;;;;;;;;;;5038569;28;20554;-78
2022/10/30 04:30:26;;;;;;;36.08;20.83;;;;;;;;;;5056250;28;20037;-76
2022/10/30 04:32:54;;;;;;;30.13;19.88;;;;;;;;;;5038033;28;20174;-76
2022/10/30 04:35:22;;;;;;;30.85;20.48;;;;;;;;;;5037711;28;20120;-77
2022/10/30 04:38:11;;;;;;;32.63;20.30;;;;;;;;;;5037503;28;20033;-76
2022/10/30 04:40:38;;;;;;;32.00;20.27;;;;;;;;;;5037656;28;20449;-77
2022/10/30 04:43:05;;;;;;;32.72;19.85;;;;;;;;;;5055671;28;20033;-76
2022/10/30 04:45:30;;;;;;;32.03;18.67;;;;;;;;;;5037794;28;20465;-76
2022/10/30 04:48:04;;;;;;;38.78;20.95;;;;;;;;;;5038010;28;20025;-75
2022/10/30 04:50:31;;;;;;;39.63;21.00;;;;;;;;;;5037831;28;20087;-75
2022/10/30 04:53:10;;;;;;;36.42;21.20;;;;;;;;;;5054947;28;20029;-77
2022/10/30 04:55:36;;;;;;;37.95;20.02;;;;;;;;;;5037549;28;20036;-78
2022/10/30 04:58:02;;;;;;;36.45;19.80;;;;;;;;;;5055227;28;20029;-76
2022/10/30 05:00:27;;;;;;;31.83;20.08;;;;;;;;;;5037028;28;20029;-78
2022/10/30 05:02:53;;;;;;;33.10;20.80;;;;;;;;;;5037661;28;20037;-77
2022/10/30 05:05:19;;;;;;;33.60;19.25;;;;;;;;;;5020856;28;20179;-78
2022/10/30 05:07:45;;;;;;;36.63;20.95;;;;;;;;;;5055180;28;20032;-76
2022/10/30 05:10:13;;;;;;;34.25;20.60;;;;;;;;;;5036961;28;20310;-76
2022/10/30 05:12:41;;;;;;;32.65;19.48;;;;;;;;;;5036538;28;20025;-77
2022/10/30 05:15:07;;;;;;;29.00;19.20;;;;;;;;;;5036576;28;20067;-77
2022/10/30 05:17:32;;;;;;;35.00;20.70;;;;;;;;;;5037475;28;20025;-76
2022/10/30 05:19:58;;;;;;;29.77;19.02;;;;;;;;;;5055263;28;20033;-76
2022/10/30 05:22:23;;;;;;;33.03;18.88;;;;;;;;;;5037022;28;20461;-78
2022/10/30 05:24:49;;;;;;;32.60;19.48;;;;;;;;;;5054118;28;20029;-78
2022/10/30 05:27:14;;;;;;;29.13;19.17;;;;;;;;;;5054795;28;20021;-78
2022/10/30 05:29:40;;;;;;;39.63;21.65;;;;;;;;;;5054858;28;20029;-77
2022/10/30 05:32:05;;;;;;;34.63;20.08;;;;;;;;;;5036422;28;20028;-77
2022/10/30 05:34:31;;;;;;;34.80;19.67;;;;;;;;;;5035951;28;20047;-77
2022/10/30 05:36:56;;;;;;;34.97;18.42;;;;;;;;;;5054185;28;20029;-78
2022/10/30 05:39:22;;;;;;;33.35;19.33;;;;;;;;;;5036590;28;20476;-78
2022/10/30 05:41:48;;;;;;;33.70;20.17;;;;;;;;;;5054357;28;20029;-77
2022/10/30 05:44:14;;;;;;;34.10;21.00;;;;;;;;;;5054565;28;20062;-77
2022/10/30 05:46:41;;;;;;;30.30;19.27;;;;;;;;;;5054417;28;20099;-78
2022/10/30 05:49:07;;;;;;;35.78;20.40;;;;;;;;;;5053878;28;20025;-77
2022/10/30 05:51:32;;;;;;;36.00;19.27;;;;;;;;;;5035998;28;20046;-77
2022/10/30 05:53:57;;;;;;;31.88;19.17;;;;;;;;;;5054037;28;20108;-78
2022/10/30 05:56:23;;;;;;;33.58;20.50;;;;;;;;;;5035967;28;20027;-76
2022/10/30 05:58:49;;;;;;;30.67;20.13;;;;;;;;;;5053709;28;20029;-77
2022/10/30 06:01:14;;;;;;;43.53;22.88;;;;;;;;;;5045564;28;20485;-79
2022/10/30 06:03:40;;;;;;;37.90;21.70;;;;;;;;;;5033472;28;20030;-76
2022/10/30 06:06:07;;;;;;;40.00;23.13;;;;;;;;;;5016146;28;20075;-78
2022/10/30 06:08:32;;;;;;;43.08;22.83;;;;;;;;;;5033555;28;20029;-78
2022/10/30 06:10:58;;;;;;;47.60;24.98;;;;;;;;;;5034298;28;20036;-77
2022/10/30 06:13:23;;;;;;;47.75;23.40;;;;;;;;;;5035845;28;20028;-77
2022/10/30 06:15:49;;;;;;;43.35;23.48;;;;;;;;;;5054136;28;20496;-77
2022/10/30 06:18:14;;;;;;;40.72;23.48;;;;;;;;;;5053897;28;20041;-76
2022/10/30 06:20:40;;;;;;;45.35;25.67;;;;;;;;;;5053831;28;20029;-76
2022/10/30 06:23:07;;;;;;;47.28;26.42;;;;;;;;;;5034849;28;20048;-76
2022/10/30 06:25:34;;;;;;;47.10;25.63;;;;;;;;;;5053100;28;20024;-76
2022/10/30 06:28:00;;;;;;;53.45;26.55;;;;;;;;;;5053542;28;20025;-76
2022/10/30 06:30:27;;;;;;;53.20;26.60;;;;;;;;;;5053137;28;20029;-76
2022/10/30 06:33:00;;;;;;;56.47;26.08;;;;;;;;;;5052897;28;20147;-76
2022/10/30 06:35:26;;;;;;;60.15;27.67;;;;;;;;;;5034907;28;20028;-77
2022/10/30 06:37:53;;;;;;;59.20;28.30;;;;;;;;;;5034699;28;20102;-78
2022/10/30 06:40:18;;;;;;;57.58;27.35;;;;;;;;;;5035136;28;20100;-78
2022/10/30 06:42:46;;;;;;;62.83;29.52;;;;;;;;;;5053677;28;20541;-78
2022/10/30 06:45:12;;;;;;;58.38;28.20;;;;;;;;;;5033935;28;20029;-77
2022/10/30 06:47:38;;;;;;;56.03;28.30;;;;;;;;;;5035484;28;20025;-77
2022/10/30 06:50:05;;;;;;;62.10;27.80;;;;;;;;;;5053610;28;20070;-77
2022/10/30 06:52:31;;;;;;;62.55;29.17;;;;;;;;;;5035879;28;20514;-77
2022/10/30 06:54:56;;;;;;;52.78;28.70;;;;;;;;;;5053263;28;20025;-77
2022/10/30 06:57:22;;;;;;;49.28;25.50;;;;;;;;;;5035392;28;20036;-77
2022/10/30 06:59:47;;;;;;;54.63;28.08;;;;;;;;;;5035360;28;20025;-78
2022/10/30 07:02:13;;;;;;;54.60;27.38;;;;;;;;;;5035077;28;20025;-78
2022/10/30 07:04:38;;;;;;;56.30;27.15;;;;;;;;;;5053170;28;20032;-76
2022/10/30 07:07:04;;;;;;;52.90;27.35;;;;;;;;;;5035737;28;20408;-77
2022/10/30 07:09:29;;;;;;;53.85;26.05;;;;;;;;;;5034627;28;20056;-77
2022/10/30 07:11:55;;;;;;;44.83;24.80;;;;;;;;;;5035120;28;20464;-77
2022/10/30 07:14:21;;;;;;;47.63;24.90;;;;;;;;;;5034812;28;20029;-77
2022/10/30 07:16:46;;;;;;;42.92;23.90;;;;;;;;;;5035213;28;20112;-77
2022/10/30 07:19:13;;;;;;;49.38;26.27;;;;;;;;;;5052212;28;20432;-77
2022/10/30 07:21:38;;;;;;;40.70;24.02;;;;;;;;;;5052404;28;20489;-77
2022/10/30 07:24:04;;;;;;;40.92;23.63;;;;;;;;;;5034915;28;20131;-77
2022/10/30 07:26:30;;;;;;;44.33;22.90;;;;;;;;;;5018185;28;20037;-76
2022/10/30 07:28:55;;;;;;;43.92;24.38;;;;;;;;;;5034540;28;20057;-76
2022/10/30 07:31:21;;;;;;;42.88;22.83;;;;;;;;;;5052684;28;20036;-76
2022/10/30 07:33:47;;;;;;;35.88;21.98;;;;;;;;;;5034234;28;20115;-77
2022/10/30 07:36:13;;;;;;;42.00;23.48;;;;;;;;;;5034280;28;20360;-77
2022/10/30 07:38:39;;;;;;;41.45;23.90;;;;;;;;;;5034445;28;20029;-77
2022/10/30 07:41:05;;;;;;;45.55;24.17;;;;;;;;;;5034133;28;20040;-77
2022/10/30 07:43:31;;;;;;;39.67;22.38;;;;;;;;;;5052162;28;20039;-77
2022/10/30 07:45:56;;;;;;;38.88;23.30;;;;;;;;;;5051651;28;20029;-78
2022/10/30 07:48:22;;;;;;;38.47;23.83;;;;;;;;;;5052215;28;20078;-77
2022/10/30 07:50:47;;;;;;;43.38;24.77;;;;;;;;;;5051526;28;20029;-78
2022/10/30 07:53:14;;;;;;;38.08;21.92;;;;;;;;;;5051633;28;20029;-77
2022/10/30 07:55:42;;;;;;;39.17;22.90;;;;;;;;;;5051317;28;20086;-77
2022/10/30 07:58:07;;;;;;;38.65;21.77;;;;;;;;;;5034293;28;20036;-76
2022/10/30 08:00:33;;;;;;;31.52;19.77;;;;;;;;;;5033671;28;20421;-76
2022/10/30 08:02:58;;;;;;;35.00;20.00;;;;;;;;;;5051809;28;20033;-78
2022/10/30 08:05:24;;;;;;;34.38;20.00;;;;;;;;;;5052081;28;20044;-78
2022/10/30 08:07:49;;;;;;;32.28;20.40;;;;;;;;;;5033654;28;20067;-78
2022/10/30 08:10:15;;;;;;;30.75;21.63;;;;;;;;;;5033766;28;20127;-77
2022/10/30 08:12:42;;;;;;;34.80;20.27;;;;;;;;;;5033515;28;20029;-76
2022/10/30 08:15:09;;;;;;;32.92;20.52;;;;;;;;;;5033663;28;20032;-77
2022/10/30 08:17:45;;;;;;;33.33;20.65;;;;;;;;;;5034069;28;20036;-77
2022/10/30 08:20:13;;;;;;;31.35;19.30;;;;;;;;;;5034221;28;20086;-77
2022/10/30 08:22:46;;;;;;;32.72;19.20;;;;;;;;;;5051833;28;20351;-77
2022/10/30 08:25:11;;;;;;;28.45;18.13;;;;;;;;;;5029879;28;20036;-78
2022/10/30 08:27:37;;;;;;;29.38;19.20;;;;;;;;;;5013867;28;20421;-76
2022/10/30 08:30:02;;;;;;;32.17;18.88;;;;;;;;;;5032788;28;20036;-77
2022/10/30 08:32:28;;;;;;;31.27;18.88;;;;;;;;;;5013975;28;20112;-77
2022/10/30 08:34:53;;;;;;;33.17;18.65;;;;;;;;;;5014693;28;20029;-78
2022/10/30 08:37:19;;;;;;;34.30;18.17;;;;;;;;;;5031110;28;20037;-76
2022/10/30 08:39:44;;;;;;;30.58;17.75;;;;;;;;;;5014091;28;20052;-76
2022/10/30 08:42:10;;;;;;;27.42;17.27;;;;;;;;;;5032338;28;20108;-78
2022/10/30 08:44:35;;;;;;;28.63;17.85;;;;;;;;;;5013820;28;20029;-77
2022/10/30 08:47:02;;;;;;;30.13;18.30;;;;;;;;;;5031072;28;20485;-78
2022/10/30 08:49:28;;;;;;;31.95;18.10;;;;;;;;;;5014712;28;20039;-76
2022/10/30 08:51:53;;;;;;;29.95;18.67;;;;;;;;;;5014177;28;20120;-77
2022/10/30 08:54:19;;;;;;;29.27;18.73;;;;;;;;;;5014478;28;20519;-78
2022/10/30 08:56:44;;;;;;;30.48;17.70;;;;;;;;;;5031556;28;20053;-78
2022/10/30 08:59:10;;;;;;;26.75;17.55;;;;;;;;;;5031846;28;20086;-76
2022/10/30 09:01:36;;;;;;;29.15;17.42;;;;;;;;;;5031792;28;20433;-79
2022/10/30 09:04:02;;;;;;;30.10;17.80;;;;;;;;;;5013545;28;20038;-77
2022/10/30 09:06:29;;;;;;;26.67;17.30;;;;;;;;;;5014253;28;20116;-78
2022/10/30 09:08:54;;;;;;;33.63;20.83;;;;;;;;;;5017004;28;20058;-76
2022/10/30 09:11:20;;;;;;;29.23;16.85;;;;;;;;;;5035710;28;20033;-78
2022/10/30 09:13:45;;;;;;;26.23;15.77;;;;;;;;;;5017083;28;20029;-77
2022/10/30 09:16:11;;;;;;;27.60;15.60;;;;;;;;;;5036020;28;20025;-78
2022/10/30 09:18:36;;;;;;;44.05;23.75;;;;;;;;;;5035397;28;20052;-78
2022/10/30 09:21:02;;;;;;;48.67;28.10;;;;;;;;;;5034662;28;20036;-76
2022/10/30 09:23:28;;;;;;;47.83;28.65;;;;;;;;;;5017211;28;20049;-78
2022/10/30 09:25:56;;;;;;;49.40;29.42;;;;;;;;;;5034456;28;20100;-77
2022/10/30 09:28:22;;;;;;;50.15;27.73;;;;;;;;;;5016513;28;20063;-77
2022/10/30 09:30:51;;;;;;;55.67;30.60;;;;;;;;;;5016380;28;20068;-77
2022/10/30 09:33:18;;;;;;;60.10;29.60;;;;;;;;;;5017072;28;20171;-77
2022/10/30 09:35:43;;;;;;;49.97;29.25;;;;;;;;;;5016799;28;20078;-79
2022/10/30 09:38:09;;;;;;;49.40;28.75;;;;;;;;;;5016993;28;20120;-78
2022/10/30 09:40:52;;;;;;;41.83;26.02;;;;;;;;;;5034619;28;20100;-76
2022/10/30 09:43:35;;;;;;;45.25;27.45;;;;;;;;;;5016947;28;20029;-77
2022/10/30 09:46:43;;;;;;;46.85;27.45;;;;;;;;;;5016863;28;20539;-78
2022/10/30 09:49:29;;;;;;;49.47;27.92;;;;;;;;;;5015802;28;20501;-78
2022/10/30 09:52:22;;;;;;;47.25;26.73;;;;;;;;;;5034059;28;20430;-77
2022/10/30 09:55:18;;;;;;;48.42;26.80;;;;;;;;;;5016920;28;20327;-79
2022/10/30 09:58:01;;;;;;;47.10;26.25;;;;;;;;;;5034000;28;20029;-78
2022/10/30 10:00:36;;;;;;;46.53;27.65;;;;;;;;;;5016144;28;20492;-77
2022/10/30 10:03:25;;;;;;;46.67;27.33;;;;;;;;;;5033610;28;20446;-77
2022/10/30 10:06:01;;;;;;;44.95;26.30;;;;;;;;;;5015849;28;20073;-76
2022/10/30 10:08:51;;;;;;;47.30;25.75;;;;;;;;;;5016135;28;20032;-76
2022/10/30 10:11:26;;;;;;;44.28;27.65;;;;;;;;;;5034253;28;20026;-78
2022/10/30 10:14:00;;;;;;;44.88;27.63;;;;;;;;;;5016253;28;20071;-78
2022/10/30 10:16:30;;;;;;;47.00;27.52;;;;;;;;;;5033963;28;20033;-78
2022/10/30 10:19:06;;;;;;;47.70;27.02;;;;;;;;;;5033360;28;20389;-79
2022/10/30 10:21:38;;;;;;;44.78;27.27;;;;;;;;;;5034105;28;20057;-77
2022/10/30 10:24:18;;;;;;;48.35;27.85;;;;;;;;;;5015890;28;20124;-78
2022/10/30 10:26:55;;;;;;;45.28;27.75;;;;;;;;;;5050352;28;20029;-77
2022/10/30 10:29:33;;;;;;;51.88;30.20;;;;;;;;;;5035506;28;20469;-76
2022/10/30 10:32:32;;;;;;;45.20;26.83;;;;;;;;;;5053086;28;20039;-78
2022/10/30 10:35:34;;;;;;;43.40;26.60;;;;;;;;;;5035124;28;20033;-77
2022/10/30 10:38:11;;;;;;;44.03;28.08;;;;;;;;;;5053341;28;20037;-78
2022/10/30 10:41:04;;;;;;;50.75;30.30;;;;;;;;;;5053426;28;20029;-78
2022/10/30 10:43:51;;;;;;;46.60;29.20;;;;;;;;;;5035412;28;20493;-78
2022/10/30 10:46:41;;;;;;;44.47;27.08;;;;;;;;;;5035815;28;20021;-77
2022/10/30 10:49:26;;;;;;;49.80;29.20;;;;;;;;;;5053272;28;20025;-77
2022/10/30 10:52:03;;;;;;;44.60;28.35;;;;;;;;;;5034894;28;20036;-78
2022/10/30 10:54:34;;;;;;;55.05;31.15;;;;;;;;;;5053824;28;20040;-78
2022/10/30 10:57:04;;;;;;;45.38;28.20;;;;;;;;;;5052929;28;20111;-78
2022/10/30 10:59:44;;;;;;;46.88;28.45;;;;;;;;;;5052923;28;20512;-78
2022/10/30 11:02:31;;;;;;;52.37;28.03;;;;;;;;;;5053248;28;20427;-77
2022/10/30 11:05:23;;;;;;;41.78;27.23;;;;;;;;;;5035983;28;20284;-77
2022/10/30 11:07:49;;;;;;;48.15;31.35;;;;;;;;;;5052877;28;20029;-76
2022/10/30 11:10:17;;;;;;;40.47;26.83;;;;;;;;;;5053216;28;20033;-77
2022/10/30 11:12:43;;;;;;;52.40;30.20;;;;;;;;;;5036305;28;20043;-76
2022/10/30 11:15:26;;;;;;;48.55;28.27;;;;;;;;;;5054491;28;20436;-79
2022/10/30 11:18:03;;;;;;;46.58;27.90;;;;;;;;;;5034506;28;20076;-79
2022/10/30 11:20:43;;;;;;;47.08;27.58;;;;;;;;;;5035028;28;20366;-77
2022/10/30 11:23:33;;;;;;;41.47;26.27;;;;;;;;;;5032221;28;20045;-77
2022/10/30 11:26:01;;;;;;;46.75;26.23;;;;;;;;;;5020777;28;20093;-77
2022/10/30 11:28:54;;;;;;;41.28;25.90;;;;;;;;;;5013396;28;20010;-78
2022/10/30 11:31:33;;;;;;;41.80;25.20;;;;;;;;;;5011510;28;20064;-79
2022/10/30 11:34:29;;;;;;;49.05;25.52;;;;;;;;;;5013421;28;20117;-78
2022/10/30 11:36:55;;;;;;;46.95;26.88;;;;;;;;;;5009459;28;20494;-78
2022/10/30 11:40:00;;;;;;;43.17;25.02;;;;;;;;;;5013217;28;20038;-78
2022/10/30 11:42:25;;;;;;;38.20;25.48;;;;;;;;;;5012138;28;20026;-77
2022/10/30 11:44:51;;;;;;;41.92;26.38;;;;;;;;;;5012827;28;20041;-78
2022/10/30 11:47:23;;;;;;;41.72;24.92;;;;;;;;;;5011293;28;20132;-78
2022/10/30 11:50:21;;;;;;;48.45;28.77;;;;;;;;;;5011333;28;20064;-79
2022/10/30 11:52:51;;;;;;;41.50;24.67;;;;;;;;;;5011091;28;20572;-77
2022/10/30 11:55:27;;;;;;;42.05;25.30;;;;;;;;;;5012007;28;20026;-78
2022/10/30 11:57:56;;;;;;;39.97;24.95;;;;;;;;;;5010778;28;20037;-76
2022/10/30 12:00:22;;;;;;;45.30;28.38;;;;;;;;;;5011436;28;20033;-77
2022/10/30 12:02:51;;;;;;;41.35;25.98;;;;;;;;;;5010769;28;20501;-80
2022/10/30 12:05:35;;;;;;;44.90;26.92;;;;;;;;;;5011759;28;20025;-78
2022/10/30 12:08:07;;;;;;;46.40;25.88;;;;;;;;;;5012353;28;20485;-77
2022/10/30 12:10:44;;;;;;;43.58;26.20;;;;;;;;;;5011727;28;20034;-76
2022/10/30 12:13:19;;;;;;;40.60;25.40;;;;;;;;;;5010579;28;20041;-78
2022/10/30 12:15:47;;;;;;;40.20;25.63;;;;;;;;;;5011299;28;20084;-78
2022/10/30 12:18:24;;;;;;;43.45;25.95;;;;;;;;;;5013766;28;20037;-76
2022/10/30 12:20:56;;;;;;;42.53;26.20;;;;;;;;;;5013351;28;20354;-77
2022/10/30 12:23:24;;;;;;;44.65;25.77;;;;;;;;;;5012182;28;20050;-76
2022/10/30 12:26:11;;;;;;;44.92;27.27;;;;;;;;;;5020874;28;20425;-77
2022/10/30 12:28:39;;;;;;;44.53;27.05;;;;;;;;;;5031210;28;20094;-78
2022/10/30 12:31:29;;;;;;;40.75;25.30;;;;;;;;;;5031376;28;20025;-77
2022/10/30 12:34:10;;;;;;;43.15;25.63;;;;;;;;;;5031616;28;20072;-78
2022/10/30 12:36:44;;;;;;;44.13;26.52;;;;;;;;;;5032750;28;20036;-78
2022/10/30 12:39:21;;;;;;;46.42;25.63;;;;;;;;;;5032539;28;20052;-78
2022/10/30 12:42:10;;;;;;;45.05;26.85;;;;;;;;;;5031499;28;20184;-78
2022/10/30 12:44:43;;;;;;;39.67;25.77;;;;;;;;;;5037073;28;20578;-75
2022/10/30 12:47:22;;;;;;;41.05;25.83;;;;;;;;;;5036119;28;20051;-76
2022/10/30 12:49:57;;;;;;;41.47;25.75;;;;;;;;;;5036140;28;20045;-77
2022/10/30 12:52:34;;;;;;;38.72;25.48;;;;;;;;;;5036393;28;20054;-77
2022/10/30 12:55:11;;;;;;;43.47;26.10;;;;;;;;;;5034644;28;20029;-77
2022/10/30 12:57:45;;;;;;;39.65;25.88;;;;;;;;;;5036415;28;20116;-76
2022/10/30 13:00:14;;;;;;;43.80;26.92;;;;;;;;;;5034482;28;20539;-77
2022/10/30 13:03:00;;;;;;;47.55;26.67;;;;;;;;;;5036410;28;20025;-77
2022/10/30 13:05:44;;;;;;;37.90;24.88;;;;;;;;;;5035264;28;20052;-77
2022/10/30 13:08:50;;;;;;;39.97;25.23;;;;;;;;;;5033142;28;20104;-76
2022/10/30 13:11:35;;;;;;;44.80;24.23;;;;;;;;;;5034688;28;20017;-79
2022/10/30 13:14:03;;;;;;;44.33;25.23;;;;;;;;;;5033508;28;20032;-78
2022/10/30 13:16:31;;;;;;;40.75;23.90;;;;;;;;;;5018519;28;20032;-76
2022/10/30 13:19:00;;;;;;;48.70;27.08;;;;;;;;;;5033816;28;20041;-77
2022/10/30 13:21:30;;;;;;;38.95;24.88;;;;;;;;;;5038237;28;20071;-77
2022/10/30 13:24:08;;;;;;;42.45;25.75;;;;;;;;;;5055059;28;20349;-76
2022/10/30 13:26:43;;;;;;;44.08;25.92;;;;;;;;;;5022098;28;20029;-76
2022/10/30 13:29:24;;;;;;;39.83;24.85;;;;;;;;;;5017478;28;20475;-76
2022/10/30 13:32:15;;;;;;;42.22;26.10;;;;;;;;;;5035456;28;20083;-76
2022/10/30 13:34:51;;;;;;;45.38;27.30;;;;;;;;;;5017164;28;20382;-78
2022/10/30 13:37:40;;;;;;;46.58;27.63;;;;;;;;;;5016995;28;20037;-78
2022/10/30 13:40:13;;;;;;;44.75;27.27;;;;;;;;;;5034971;28;20033;-75
2022/10/30 13:43:04;;;;;;;51.47;27.98;;;;;;;;;;5017071;28;20021;-77
2022/10/30 13:46:26;;;;;;;48.65;29.52;;;;;;;;;;5016936;28;20021;-76
2022/10/30 13:49:18;;;;;;;54.40;29.00;;;;;;;;;;4994468;28;20029;-75
2022/10/30 13:51:51;;;;;;;48.85;29.27;;;;;;;;;;5035115;28;20033;-75
2022/10/30 13:54:22;;;;;;;44.42;29.15;;;;;;;;;;5016215;28;20095;-77
2022/10/30 13:56:50;;;;;;;51.03;29.05;;;;;;;;;;5035083;28;20060;-77
2022/10/30 13:59:18;;;;;;;46.60;28.00;;;;;;;;;;4999934;28;20041;-76
2022/10/30 14:02:09;;;;;;;49.15;28.83;;;;;;;;;;5016905;28;20046;-78
2022/10/30 14:04:42;;;;;;;46.35;28.33;;;;;;;;;;5016649;28;20515;-77
2022/10/30 14:07:23;;;;;;;50.85;28.42;;;;;;;;;;5034364;28;20083;-77
2022/10/30 14:09:53;;;;;;;48.80;28.92;;;;;;;;;;5035013;28;20025;-76
2022/10/30 14:12:44;;;;;;;50.58;27.60;;;;;;;;;;5016623;28;20615;-78
2022/10/30 14:15:28;;;;;;;46.47;29.07;;;;;;;;;;5034580;28;20473;-77
2022/10/30 14:18:12;;;;;;;49.97;28.65;;;;;;;;;;5016481;28;20075;-76
2022/10/30 14:20:48;;;;;;;47.97;28.88;;;;;;;;;;5017274;28;20153;-76
2022/10/30 14:23:20;;;;;;;43.53;26.60;;;;;;;;;;5034806;28;20389;-78
2022/10/30 14:26:04;;;;;;;48.20;27.30;;;;;;;;;;5025614;28;20035;-77
2022/10/30 14:28:35;;;;;;;45.03;27.67;;;;;;;;;;5054179;28;20358;-77
2022/10/30 14:31:06;;;;;;;46.83;28.75;;;;;;;;;;5036125;28;20100;-77
2022/10/30 14:33:47;;;;;;;50.25;30.80;;;;;;;;;;5036366;28;20492;-76
2022/10/30 14:36:38;;;;;;;48.08;29.15;;;;;;;;;;5036116;28;20025;-77
2022/10/30 14:39:09;;;;;;;53.70;29.65;;;;;;;;;;5053423;28;20044;-77
2022/10/30 14:42:10;;;;;;;45.47;28.50;;;;;;;;;;5035471;28;20060;-78